Time;durP1;ratioP1;P1;durP2;ratioP2;P2;SDS_P1;SDS_P2;PMS_P1;PMS_P2;Temp;Humidity;BMP_temperature;BMP_pressure;BME280_temperature;BME280_humidity;BME280_pressure;Samples;Min_cycle;Max_cycle;Signal;HPM_P1;HPM_P2
2023/01/04 00:02:01;;;;;;;21.25;3.67;;;;;;;15.26;59.90;101833.75;5007024;28;20036;-70
2023/01/04 00:04:27;;;;;;;9.23;2.65;;;;;;;14.75;61.44;101831.56;5008239;28;20059;-70
2023/01/04 00:06:52;;;;;;;7.32;2.55;;;;;;;15.46;60.69;101822.63;5004996;28;20062;-69
2023/01/04 00:09:17;;;;;;;5.53;2.50;;;;;;;14.95;61.66;101824.03;5022332;28;20517;-70
2023/01/04 00:11:43;;;;;;;9.20;2.78;;;;;;;15.71;59.94;101807.81;5018944;28;20046;-70
2023/01/04 00:14:10;;;;;;;12.00;3.10;;;;;;;15.25;61.30;101806.91;5006048;28;20025;-71
2023/01/04 00:16:35;;;;;;;8.13;3.33;;;;;;;14.96;62.27;101800.47;5007973;28;20050;-70
2023/01/04 00:19:02;;;;;;;12.10;3.53;;;;;;;14.69;63.47;101793.78;5006571;28;20096;-69
2023/01/04 00:21:29;;;;;;;17.67;3.30;;;;;;;15.13;62.40;101790.66;5008521;28;20057;-71
2023/01/04 00:24:00;;;;;;;10.35;2.63;;;;;;;14.57;64.04;101777.50;5006969;28;20057;-71
2023/01/04 00:26:28;;;;;;;12.60;2.80;;;;;;;15.03;63.09;101774.13;5008720;28;20033;-71
2023/01/04 00:28:56;;;;;;;17.33;3.03;;;;;;;15.13;63.01;101778.97;5007726;28;20037;-70
2023/01/04 00:31:23;;;;;;;8.50;3.63;;;;;;;15.15;62.96;101771.47;5007635;28;20037;-70
2023/01/04 00:33:49;;;;;;;11.75;2.90;;;;;;;15.51;62.28;101766.69;5006741;28;20037;-69
2023/01/04 00:36:14;;;;;;;8.82;3.72;;;;;;;15.55;62.28;101756.19;4992846;28;20491;-70
2023/01/04 00:38:41;;;;;;;9.93;2.83;;;;;;;14.83;64.73;101755.50;5005090;28;20137;-70
2023/01/04 00:41:07;;;;;;;13.88;2.60;;;;;;;14.51;65.60;101762.19;5009429;28;20038;-70
2023/01/04 00:43:33;;;;;;;11.82;4.03;;;;;;;14.99;63.92;101748.59;5007767;28;20038;-70
2023/01/04 00:46:00;;;;;;;8.55;3.20;;;;;;;14.93;65.02;101735.97;4986637;28;20105;-70
2023/01/04 00:48:26;;;;;;;12.93;3.22;;;;;;;15.45;62.51;101723.50;5009400;28;20034;-69
2023/01/04 00:50:51;;;;;;;8.90;2.90;;;;;;;15.25;63.93;101725.69;5006979;28;20545;-68
2023/01/04 00:53:17;;;;;;;10.00;2.63;;;;;;;14.33;66.56;101727.06;5006777;28;20032;-71
2023/01/04 00:55:43;;;;;;;11.13;2.70;;;;;;;14.47;67.38;101720.41;5007499;28;20367;-69
2023/01/04 00:58:09;;;;;;;6.85;2.90;;;;;;;14.44;67.26;101714.66;5005429;28;20486;-68
2023/01/04 01:00:35;;;;;;;4.95;2.70;;;;;;;14.75;66.17;101701.69;5005515;28;20045;-70
2023/01/04 01:03:00;;;;;;;6.45;2.92;;;;;;;15.33;65.02;101700.97;5008101;28;20041;-69
2023/01/04 01:05:26;;;;;;;8.93;3.38;;;;;;;15.20;64.38;101693.03;5006025;28;20033;-69
2023/01/04 01:07:51;;;;;;;10.10;3.22;;;;;;;14.52;67.49;101680.00;5006114;28;20018;-70
2023/01/04 01:10:17;;;;;;;12.48;2.95;;;;;;;14.29;69.59;101681.78;5003542;28;20043;-70
2023/01/04 01:12:42;;;;;;;9.35;3.05;;;;;;;14.58;67.49;101660.16;5004160;28;20030;-69
2023/01/04 01:15:29;;;;;;;4.70;3.35;;;;;;;14.16;68.84;101644.91;5006239;28;20500;-68
2023/01/04 01:17:54;;;;;;;10.40;2.85;;;;;;;14.72;67.40;101658.06;4951667;29;20453;-68
2023/01/04 01:20:19;;;;;;;4.40;1.85;;;;;;;14.61;67.79;101651.56;4951579;28;20082;-69
2023/01/04 01:22:45;;;;;;;8.60;3.00;;;;;;;14.93;66.96;101643.97;4952122;29;20574;-69
2023/01/04 01:25:10;;;;;;;5.65;2.63;;;;;;;14.75;68.45;101642.19;4952261;28;20530;-70
2023/01/04 01:27:35;;;;;;;14.15;3.70;;;;;;;15.34;65.62;101634.88;4950918;28;20047;-69
2023/01/04 01:30:01;;;;;;;11.68;3.72;;;;;;;15.27;67.28;101623.38;4951664;29;20043;-70
2023/01/04 01:32:26;;;;;;;4.70;2.65;;;;;;;14.87;67.12;101632.19;4948867;28;20061;-70
2023/01/04 01:34:51;;;;;;;5.55;2.55;;;;;;;14.84;67.54;101623.69;4951598;29;20039;-69
2023/01/04 01:37:17;;;;;;;8.60;3.65;;;;;;;14.74;68.46;101610.75;4951347;28;20179;-71
2023/01/04 01:39:42;;;;;;;10.75;2.85;;;;;;;14.77;67.92;101598.66;4951152;28;20059;-68
2023/01/04 01:42:18;;;;;;;2.65;1.90;;;;;;;15.31;66.82;101586.63;4951084;29;20062;-68
2023/01/04 01:44:44;;;;;;;12.70;2.75;;;;;;;15.09;66.76;101602.66;4951272;28;20584;-68
2023/01/04 01:47:22;;;;;;;5.60;1.85;;;;;;;14.44;70.11;101595.66;4951529;29;20070;-68
2023/01/04 01:49:52;;;;;;;7.18;2.53;;;;;;;14.57;70.24;101584.63;4935348;29;20179;-69
2023/01/04 01:52:25;;;;;;;6.07;2.40;;;;;;;15.41;67.06;101574.09;4951036;28;20035;-70
2023/01/04 01:54:58;;;;;;;4.68;3.53;;;;;;;15.16;68.01;101565.44;4973635;28;20383;-69
2023/01/04 01:57:29;;;;;;;6.63;2.58;;;;;;;14.81;69.07;101568.19;5005664;28;20061;-70
2023/01/04 01:59:57;;;;;;;6.10;2.17;;;;;;;15.37;67.15;101567.53;5004353;28;20077;-69
2023/01/04 02:02:23;;;;;;;3.58;1.67;;;;;;;15.10;68.55;101570.97;5007045;28;20044;-71
2023/01/04 02:04:50;;;;;;;6.25;2.20;;;;;;;15.38;67.09;101571.06;5003564;28;20023;-68
2023/01/04 02:07:20;;;;;;;5.50;1.83;;;;;;;14.43;70.50;101575.06;5007061;28;20034;-69
2023/01/04 02:09:48;;;;;;;3.60;1.73;;;;;;;14.50;70.51;101551.47;5005701;28;20030;-69
2023/01/04 02:12:13;;;;;;;4.88;2.35;;;;;;;14.78;69.91;101559.72;5004207;28;20592;-69
2023/01/04 02:14:46;;;;;;;3.08;1.50;;;;;;;14.68;70.32;101554.88;5001902;28;20125;-68
2023/01/04 02:17:21;;;;;;;2.83;1.92;;;;;;;14.77;70.32;101552.66;5003895;28;20088;-70
2023/01/04 02:20:02;;;;;;;8.30;2.05;;;;;;;15.29;68.88;101545.44;5005338;28;20061;-69
2023/01/04 02:22:46;;;;;;;2.78;1.60;;;;;;;15.18;68.86;101533.53;5004203;28;20125;-70
2023/01/04 02:25:45;;;;;;;3.53;1.90;;;;;;;15.01;69.83;101540.75;5003784;28;20034;-71
2023/01/04 02:28:45;;;;;;;3.13;1.60;;;;;;;15.52;68.77;101529.13;5005067;28;20033;-71
2023/01/04 02:31:29;;;;;;;1.83;1.23;;;;;;;14.75;70.46;101530.41;5003326;28;20033;-70
2023/01/04 02:34:03;;;;;;;3.75;1.65;;;;;;;15.06;70.84;101518.38;5002705;28;20038;-69
2023/01/04 02:36:52;;;;;;;2.10;0.95;;;;;;;14.72;72.43;101528.19;5003579;28;20034;-71
2023/01/04 02:39:33;;;;;;;3.95;1.83;;;;;;;14.63;72.03;101521.47;5004447;28;20184;-70
2023/01/04 02:42:06;;;;;;;2.00;1.15;;;;;;;15.07;71.32;101506.50;5004351;28;20042;-69
2023/01/04 02:44:52;;;;;;;2.33;1.40;;;;;;;15.21;70.31;101518.72;5002185;28;20117;-70
2023/01/04 02:50:32;;;;;;;1.38;1.27;;;;;;;14.84;72.44;101496.50;5006315;28;20057;-70
2023/01/04 02:53:04;;;;;;;1.30;1.20;;;;;;;15.69;68.84;101484.75;5004446;28;20148;-70
2023/01/04 02:55:58;;;;;;;4.45;1.75;;;;;;;14.57;72.44;101490.78;5002855;28;20285;-70
2023/01/04 02:59:02;;;;;;;2.95;1.50;;;;;;;15.11;72.45;101476.00;4949490;29;20501;-69
2023/01/04 03:07:47;;;;;;;1.42;1.33;;;;;;;14.87;73.59;101477.94;4899785;29;20581;-72
2023/01/04 03:10:21;;;;;;;2.33;1.77;;;;;;;14.80;74.84;101452.06;4900065;29;20305;-70
2023/01/04 03:12:54;;;;;;;2.30;1.48;;;;;;;15.18;72.86;101473.16;4900265;29;20044;-70
2023/01/04 03:15:26;;;;;;;5.07;1.98;;;;;;;15.03;73.88;101464.72;4901236;29;20416;-72
2023/01/04 03:17:56;;;;;;;1.40;1.10;;;;;;;14.81;73.97;101467.25;4896950;29;20409;-70
2023/01/04 03:20:23;;;;;;;3.15;1.60;;;;;;;14.96;73.85;101462.97;4901584;29;20032;-71
2023/01/04 03:37:22;;;;;;;2.92;2.15;;;;;;;15.16;73.47;101459.03;4960603;28;20417;-72
2023/01/04 03:49:01;;;;;;;2.90;1.90;;;;;;;15.21;75.23;101451.03;5005214;28;20082;-72
2023/01/04 03:51:35;;;;;;;2.53;2.33;;;;;;;15.59;73.73;101454.78;5004063;28;20096;-70
2023/01/04 03:54:23;;;;;;;2.65;2.45;;;;;;;15.87;73.10;101459.34;5002364;28;20537;-71
2023/01/04 03:56:51;;;;;;;4.20;2.72;;;;;;;15.24;74.48;101451.38;4996044;28;20152;-71
2023/01/04 03:59:16;;;;;;;4.40;2.72;;;;;;;15.52;74.16;101462.25;5004560;28;20065;-71
2023/01/04 04:01:43;;;;;;;3.35;2.63;;;;;;;15.61;74.45;101455.34;5004729;28;20034;-71
2023/01/04 04:09:36;;;;;;;3.42;3.13;;;;;;;15.22;75.86;101436.41;4995118;28;20069;-71
2023/01/04 04:12:02;;;;;;;3.03;2.80;;;;;;;14.98;77.49;101440.28;5010397;28;20042;-71
2023/01/04 04:14:27;;;;;;;3.40;2.60;;;;;;;15.11;75.61;101454.34;5012012;28;20030;-71
2023/01/04 04:16:52;;;;;;;3.42;3.13;;;;;;;15.25;76.06;101436.75;4992734;28;20138;-71
2023/01/04 04:19:18;;;;;;;3.65;3.15;;;;;;;15.46;74.84;101435.28;4990696;28;20053;-70
2023/01/04 04:21:43;;;;;;;5.07;3.55;;;;;;;15.77;73.71;101440.19;4991068;28;20137;-70
2023/01/04 04:24:23;;;;;;;3.78;3.45;;;;;;;15.78;72.97;101417.47;4990861;28;20530;-72
2023/01/04 04:26:50;;;;;;;5.55;4.00;;;;;;;16.04;73.33;101427.63;4990885;28;20380;-71
2023/01/04 04:29:15;;;;;;;5.38;4.03;;;;;;;15.91;73.09;101409.00;4991037;28;20060;-72
2023/01/04 04:31:41;;;;;;;4.63;3.60;;;;;;;16.16;72.94;101416.69;4990230;28;20591;-71
2023/01/04 04:34:06;;;;;;;4.13;3.70;;;;;;;15.45;75.01;101426.34;4991081;28;20105;-72
2023/01/04 04:36:31;;;;;;;4.25;3.33;;;;;;;15.31;75.81;101419.53;4989600;28;20532;-72
2023/01/04 04:38:57;;;;;;;4.97;4.47;;;;;;;16.31;72.74;101406.91;4990958;28;20089;-71
2023/01/04 04:41:37;;;;;;;4.65;4.25;;;;;;;15.80;74.81;101405.28;4993978;28;20050;-73
2023/01/04 04:44:08;;;;;;;3.70;3.40;;;;;;;15.38;76.28;101403.16;4990907;28;20035;-71
2023/01/04 04:46:34;;;;;;;4.82;4.43;;;;;;;15.93;74.19;101396.00;4986881;28;20035;-71
2023/01/04 04:49:01;;;;;;;5.50;4.63;;;;;;;16.00;73.11;101396.66;4994523;28;20045;-71
2023/01/04 04:51:27;;;;;;;5.13;3.78;;;;;;;15.68;74.88;101376.63;4994459;28;20104;-70
2023/01/04 04:53:52;;;;;;;6.70;4.93;;;;;;;16.09;74.23;101381.63;4994188;28;20119;-72
2023/01/04 04:56:18;;;;;;;5.97;5.40;;;;;;;16.40;72.39;101372.88;4994758;28;20501;-71
2023/01/04 04:58:43;;;;;;;6.68;6.07;;;;;;;16.35;72.30;101366.56;4994921;28;20041;-71
2023/01/04 05:01:09;;;;;;;6.45;5.53;;;;;;;16.01;74.24;101360.38;4991342;28;20145;-73
2023/01/04 05:03:34;;;;;;;6.15;5.53;;;;;;;16.18;73.56;101380.13;4993703;28;20042;-72
2023/01/04 05:06:01;;;;;;;5.25;4.57;;;;;;;15.63;76.08;101363.81;4994333;28;20321;-72
2023/01/04 05:08:27;;;;;;;5.78;5.22;;;;;;;16.51;72.92;101369.25;4993517;28;20042;-70
2023/01/04 05:10:52;;;;;;;5.88;4.97;;;;;;;15.90;75.18;101369.38;4993790;28;20034;-71
2023/01/04 05:13:18;;;;;;;5.70;4.80;;;;;;;15.99;74.76;101362.50;4994082;28;20042;-71
2023/01/04 05:15:51;;;;;;;5.53;4.43;;;;;;;16.07;74.92;101370.22;5017357;28;20133;-71
2023/01/04 05:18:19;;;;;;;6.50;4.32;;;;;;;16.34;73.86;101354.88;5013481;28;20041;-71
2023/01/04 05:20:45;;;;;;;5.45;3.80;;;;;;;15.86;75.77;101365.56;5007324;28;20042;-72
2023/01/04 05:23:12;;;;;;;4.35;3.92;;;;;;;15.76;75.98;101377.03;5013056;28;20030;-73
2023/01/04 05:25:39;;;;;;;4.22;3.83;;;;;;;15.98;74.93;101357.34;5013589;28;20036;-73
2023/01/04 05:28:06;;;;;;;6.07;4.63;;;;;;;16.67;72.21;101348.53;5013235;28;20037;-71
2023/01/04 05:30:50;;;;;;;3.35;3.05;;;;;;;16.34;73.62;101368.44;5013187;28;20486;-70
2023/01/04 05:33:23;;;;;;;4.80;3.78;;;;;;;16.58;73.27;101344.63;4995578;28;20467;-71
2023/01/04 05:35:49;;;;;;;5.32;3.58;;;;;;;16.61;73.61;101338.69;5013342;28;20092;-70
2023/01/04 05:38:15;;;;;;;4.10;2.92;;;;;;;15.75;76.62;101347.47;5001516;28;20030;-71
2023/01/04 05:40:41;;;;;;;4.00;3.45;;;;;;;16.56;73.36;101335.94;5013866;28;20053;-71
2023/01/04 05:43:07;;;;;;;4.82;3.58;;;;;;;16.39;75.55;101327.81;5010866;28;20069;-71
2023/01/04 05:45:32;;;;;;;3.90;3.17;;;;;;;15.93;76.03;101343.69;5009194;28;20033;-71
2023/01/04 05:47:57;;;;;;;4.28;3.17;;;;;;;15.80;76.96;101337.53;5015303;28;20532;-71
2023/01/04 05:50:23;;;;;;;6.00;4.60;;;;;;;16.76;73.67;101328.03;5012707;28;20030;-71
2023/01/04 05:52:49;;;;;;;4.35;2.97;;;;;;;16.90;72.91;101323.88;5011283;28;20441;-69
2023/01/04 05:55:15;;;;;;;3.20;2.88;;;;;;;16.57;72.47;101315.84;5011545;28;20096;-72
2023/01/04 05:57:40;;;;;;;4.80;3.25;;;;;;;16.36;74.47;101309.34;5010160;28;20045;-72
2023/01/04 06:00:07;;;;;;;4.25;2.78;;;;;;;16.97;72.90;101293.78;5010264;28;20108;-70
2023/01/04 06:02:33;;;;;;;3.28;2.78;;;;;;;16.35;75.03;101283.25;4988787;28;20569;-71
2023/01/04 06:04:59;;;;;;;2.58;2.35;;;;;;;16.43;74.48;101293.69;5012686;28;20042;-71
2023/01/04 06:07:25;;;;;;;3.78;3.35;;;;;;;16.64;73.07;101281.22;5013415;28;20046;-71
2023/01/04 06:09:50;;;;;;;4.43;3.95;;;;;;;17.11;71.30;101274.09;5012200;28;20379;-72
2023/01/04 06:12:16;;;;;;;3.97;2.50;;;;;;;16.31;73.98;101268.56;5010557;28;20097;-71
2023/01/04 06:14:41;;;;;;;3.05;2.53;;;;;;;16.64;74.42;101283.94;5012263;28;20037;-72
2023/01/04 06:17:07;;;;;;;2.60;2.40;;;;;;;17.03;72.10;101295.47;5012568;28;20025;-73
2023/01/04 06:19:32;;;;;;;2.63;2.42;;;;;;;16.68;73.17;101294.03;5012092;28;20081;-72
2023/01/04 06:21:58;;;;;;;3.22;2.25;;;;;;;16.75;73.85;101299.25;5012242;28;20765;-72
2023/01/04 06:24:23;;;;;;;2.67;2.47;;;;;;;16.65;73.30;101280.97;5012034;28;20038;-71
2023/01/04 06:26:49;;;;;;;3.78;3.25;;;;;;;16.72;76.97;101269.09;4994670;28;20065;-73
2023/01/04 06:29:15;;;;;;;4.40;2.53;;;;;;;16.79;73.44;101270.53;5012372;28;20096;-71
2023/01/04 06:31:41;;;;;;;2.95;2.75;;;;;;;16.96;72.50;101278.56;5012046;28;20083;-71
2023/01/04 06:34:06;;;;;;;3.40;2.53;;;;;;;16.54;73.25;101316.38;5011724;28;20033;-70
2023/01/04 06:36:31;;;;;;;2.22;2.03;;;;;;;16.13;75.54;101309.56;5013508;28;20642;-70
2023/01/04 06:38:58;;;;;;;2.05;1.88;;;;;;;16.03;75.63;101309.44;5016299;28;20034;-72
2023/01/04 06:41:23;;;;;;;2.45;2.25;;;;;;;16.23;75.57;101309.72;5011786;28;20038;-72
2023/01/04 06:43:49;;;;;;;3.00;2.38;;;;;;;16.67;74.16;101305.94;4994055;28;20429;-73
2023/01/04 06:46:14;;;;;;;3.10;2.60;;;;;;;16.53;74.54;101307.41;5011720;28;20037;-72
2023/01/04 06:48:40;;;;;;;2.88;2.58;;;;;;;16.68;73.73;101295.91;5011357;28;20046;-72
2023/01/04 06:51:05;;;;;;;2.33;2.13;;;;;;;16.66;73.99;101326.03;5011855;28;20090;-73
2023/01/04 06:53:31;;;;;;;3.28;2.58;;;;;;;16.32;75.46;101320.94;5011485;28;20454;-71
2023/01/04 06:55:56;;;;;;;2.35;2.15;;;;;;;16.53;74.47;101312.00;5011865;28;20030;-74
2023/01/04 06:58:22;;;;;;;3.35;2.30;;;;;;;16.56;74.50;101306.91;5011641;28;20037;-72
2023/01/04 07:00:50;;;;;;;3.20;2.42;;;;;;;16.36;75.14;101322.06;5011412;28;20044;-70
2023/01/04 07:03:15;;;;;;;2.95;2.55;;;;;;;16.35;76.53;101302.25;5011843;28;20034;-72
2023/01/04 07:05:41;;;;;;;3.72;3.08;;;;;;;16.22;76.09;101302.63;5011322;28;20564;-70
2023/01/04 07:08:07;;;;;;;2.63;2.42;;;;;;;16.76;74.74;101290.03;5011759;28;20030;-72
2023/01/04 07:10:32;;;;;;;3.60;3.28;;;;;;;16.29;75.66;101300.56;5011181;28;20033;-73
2023/01/04 07:12:58;;;;;;;3.03;2.72;;;;;;;16.49;75.76;101290.00;5011228;28;20038;-72
2023/01/04 07:15:23;;;;;;;2.65;2.45;;;;;;;16.31;76.76;101287.56;5010670;28;20058;-72
2023/01/04 07:17:49;;;;;;;3.35;2.58;;;;;;;16.31;76.98;101271.28;5010898;28;20034;-71
2023/01/04 07:20:15;;;;;;;3.33;2.92;;;;;;;17.00;73.10;101283.22;5010951;28;20111;-72
2023/01/04 07:22:41;;;;;;;5.18;3.03;;;;;;;16.66;74.86;101268.22;5011696;28;20026;-72
2023/01/04 07:25:06;;;;;;;2.78;2.58;;;;;;;16.54;75.30;101291.94;5010986;28;20044;-71
2023/01/04 07:27:32;;;;;;;3.65;2.95;;;;;;;16.59;75.66;101262.16;5010944;28;20261;-73
2023/01/04 07:29:57;;;;;;;6.30;3.00;;;;;;;16.56;75.23;101262.66;4993044;28;20517;-71
2023/01/04 07:32:23;;;;;;;2.83;2.45;;;;;;;16.73;74.46;101268.03;5010832;28;20022;-71
2023/01/04 07:34:48;;;;;;;4.88;2.63;;;;;;;17.37;72.76;101248.81;5011232;28;20537;-72
2023/01/04 07:37:14;;;;;;;6.63;3.58;;;;;;;16.42;76.61;101256.78;5016669;28;20025;-72
2023/01/04 07:39:40;;;;;;;5.65;3.83;;;;;;;16.79;74.30;101251.53;5011015;28;20500;-72
2023/01/04 07:42:06;;;;;;;3.13;2.83;;;;;;;16.84;74.54;101246.16;5010548;28;20044;-71
2023/01/04 07:44:31;;;;;;;2.85;2.40;;;;;;;16.33;76.39;101257.50;5010618;28;20037;-72
2023/01/04 07:46:56;;;;;;;4.20;2.75;;;;;;;16.67;75.21;101237.28;5011225;28;20046;-71
2023/01/04 07:49:22;;;;;;;4.18;3.20;;;;;;;16.08;77.49;101252.53;5010372;28;20467;-70
2023/01/04 07:51:49;;;;;;;5.40;2.83;;;;;;;16.64;75.80;101241.34;5010902;28;20041;-69
2023/01/04 07:54:16;;;;;;;4.38;3.10;;;;;;;16.85;74.71;101234.22;5010918;28;20041;-69
2023/01/04 07:56:42;;;;;;;3.40;2.83;;;;;;;16.53;75.95;101257.75;5010300;28;20045;-71
2023/01/04 07:59:09;;;;;;;4.00;3.17;;;;;;;16.85;75.09;101246.97;5012569;28;20037;-71
2023/01/04 08:01:37;;;;;;;7.18;3.53;;;;;;;16.81;73.88;101262.94;5010623;28;20516;-70
2023/01/04 08:04:06;;;;;;;7.25;3.28;;;;;;;16.27;76.23;101248.47;5010128;28;20046;-71
2023/01/04 08:06:32;;;;;;;6.38;3.22;;;;;;;16.58;75.77;101236.94;5010716;28;20474;-71
2023/01/04 08:08:58;;;;;;;5.60;3.20;;;;;;;15.93;77.83;101233.38;5010621;28;20037;-71
2023/01/04 08:11:24;;;;;;;10.60;3.70;;;;;;;17.18;73.32;101263.00;5010024;28;20026;-70
2023/01/04 08:13:50;;;;;;;5.80;3.10;;;;;;;16.76;76.24;101227.63;5011652;28;20037;-70
2023/01/04 08:16:26;;;;;;;3.45;2.70;;;;;;;16.81;75.81;101253.97;5014347;28;20054;-72
2023/01/04 08:18:53;;;;;;;4.88;2.65;;;;;;;15.83;79.00;101238.66;5014205;28;20034;-72
2023/01/04 08:21:18;;;;;;;6.82;2.67;;;;;;;16.76;76.43;101230.34;5014283;28;20049;-71
2023/01/04 08:23:44;;;;;;;9.70;2.38;;;;;;;16.63;75.35;101244.28;5014193;28;20045;-73
2023/01/04 08:26:12;;;;;;;6.07;2.35;;;;;;;16.38;77.13;101238.56;5014589;28;20034;-71
2023/01/04 08:28:39;;;;;;;3.17;2.15;;;;;;;16.49;76.45;101249.28;5014493;28;20132;-73
2023/01/04 08:31:12;;;;;;;3.17;2.05;;;;;;;16.53;76.14;101241.47;5013459;28;20617;-71
2023/01/04 08:33:38;;;;;;;4.55;1.92;;;;;;;16.59;76.44;101229.59;5012179;28;20046;-71
2023/01/04 08:36:19;;;;;;;2.63;1.65;;;;;;;17.78;71.82;101217.31;5013725;28;20066;-71
2023/01/04 08:38:45;;;;;;;;;;;;;;;17.86;71.73;101224.97;5012883;28;20368;-71
2023/01/04 08:41:11;;;;;;;2.55;1.55;;;;;;;16.54;76.42;101224.94;5013712;28;19925;-71
2023/01/04 08:43:36;;;;;;;4.13;1.88;;;;;;;17.27;74.21;101218.03;5013815;28;20092;-71
2023/01/04 08:46:03;;;;;;;4.53;1.42;;;;;;;17.00;75.03;101226.19;4995016;28;20052;-72
2023/01/04 08:48:29;;;;;;;2.35;1.70;;;;;;;16.98;74.40;101228.34;4997027;28;20033;-72
2023/01/04 08:50:57;;;;;;;4.95;1.60;;;;;;;17.04;75.46;101216.47;5013591;28;20041;-71
2023/01/04 08:53:23;;;;;;;2.22;1.23;;;;;;;16.29;76.96;101242.78;5013288;28;20036;-74
2023/01/04 08:55:50;;;;;;;2.72;2.47;;;;;;;16.74;75.31;101226.22;5013167;28;20037;-72
2023/01/04 08:58:16;;;;;;;2.65;1.27;;;;;;;17.10;74.58;101223.56;5013571;28;20486;-71
2023/01/04 09:00:41;;;;;;;3.75;1.35;;;;;;;16.30;78.37;101255.25;5013271;28;20034;-72
2023/01/04 09:03:06;;;;;;;3.28;1.30;;;;;;;17.16;74.47;101219.81;5012865;28;20390;-73
2023/01/04 09:05:32;;;;;;;2.20;1.20;;;;;;;16.42;78.08;101223.41;5013176;28;20509;-72
2023/01/04 09:07:59;;;;;;;4.68;1.50;;;;;;;16.22;78.53;101231.28;5013784;28;20038;-70
2023/01/04 09:10:24;;;;;;;3.00;1.25;;;;;;;16.52;77.46;101239.84;5011379;28;20034;-74
2023/01/04 09:12:50;;;;;;;2.78;1.00;;;;;;;16.86;76.89;101229.59;5013040;28;20084;-73
2023/01/04 09:15:16;;;;;;;1.92;1.08;;;;;;;16.36;79.53;101241.53;5012391;28;20042;-73
2023/01/04 09:17:41;;;;;;;1.67;0.80;;;;;;;16.30;79.17;101245.25;5012367;28;20038;-70
2023/01/04 09:20:07;;;;;;;2.25;0.70;;;;;;;16.69;77.25;101262.25;5013200;28;20013;-70
2023/01/04 09:22:33;;;;;;;4.28;0.93;;;;;;;17.00;76.47;101261.50;5012821;28;20049;-72
2023/01/04 09:24:58;;;;;;;1.05;0.80;;;;;;;17.00;76.63;101247.91;5012250;28;20087;-72
2023/01/04 09:27:24;;;;;;;0.98;0.75;;;;;;;17.25;75.89;101255.50;5006570;28;20096;-72
2023/01/04 09:29:49;;;;;;;0.80;0.60;;;;;;;16.28;78.56;101258.25;5012379;28;20494;-74
2023/01/04 09:32:15;;;;;;;2.22;0.82;;;;;;;16.35;78.16;101267.00;5012310;28;20033;-73
2023/01/04 09:34:41;;;;;;;2.28;0.73;;;;;;;17.06;76.08;101246.88;5009964;28;20033;-73
2023/01/04 09:37:06;;;;;;;1.85;0.90;;;;;;;16.76;77.40;101256.66;5013063;28;20065;-74
2023/01/04 09:39:32;;;;;;;0.60;0.60;;;;;;;16.81;76.74;101260.22;4993976;28;20030;-74
2023/01/04 09:42:02;;;;;;;0.40;0.40;;;;;;;17.03;76.21;101250.13;5010741;28;20041;-72
2023/01/04 09:44:43;;;;;;;0.50;0.50;;;;;;;17.60;73.52;101260.41;5011056;28;20025;-73
2023/01/04 09:47:28;;;;;;;3.25;0.70;;;;;;;17.03;75.60;101274.56;4993559;28;20363;-70
2023/01/04 09:49:59;;;;;;;0.45;0.40;;;;;;;16.66;76.77;101277.19;4993648;28;20065;-73
2023/01/04 09:52:44;;;;;;;1.33;0.50;;;;;;;16.89;76.24;101267.09;5009888;28;20030;-70
2023/01/04 09:55:20;;;;;;;1.15;0.50;;;;;;;17.49;74.34;101271.19;5009515;28;20419;-73
2023/01/04 09:57:55;;;;;;;0.60;0.52;;;;;;;17.29;75.66;101257.44;5009069;28;20057;-73
2023/01/04 10:00:27;;;;;;;0.90;0.57;;;;;;;17.33;75.76;101263.16;5008259;28;20049;-73
2023/01/04 10:03:05;;;;;;;0.32;0.32;;;;;;;17.32;75.28;101270.50;5008882;28;20100;-71
2023/01/04 10:05:32;;;;;;;0.57;0.57;;;;;;;17.06;75.44;101303.13;5009556;28;20112;-73
2023/01/04 10:07:57;;;;;;;4.68;0.70;;;;;;;17.60;74.20;101276.72;5010933;28;20084;-73
2023/01/04 10:10:45;;;;;;;0.50;0.50;;;;;;;17.37;74.38;101258.84;5010591;28;20030;-73
2023/01/04 10:13:32;;;;;;;0.47;0.47;;;;;;;17.26;75.65;101259.81;5009741;28;20037;-70
2023/01/04 10:16:11;;;;;;;0.70;0.70;;;;;;;17.78;73.01;101268.13;5010433;28;20049;-73
2023/01/04 10:19:01;;;;;;;2.50;1.10;;;;;;;16.84;76.40;101254.31;5011752;28;20068;-72
2023/01/04 10:21:30;;;;;;;0.80;0.80;;;;;;;17.40;74.97;101252.88;5016268;28;20045;-72
2023/01/04 10:24:01;;;;;;;0.43;0.38;;;;;;;16.98;76.21;101260.13;5021624;28;20037;-73
2023/01/04 10:26:33;;;;;;;2.97;1.05;;;;;;;17.42;74.04;101265.13;5012280;28;20406;-73
2023/01/04 10:29:25;;;;;;;2.58;1.90;;;;;;;17.40;74.11;101263.75;4994036;28;20034;-71
2023/01/04 10:32:01;;;;;;;2.38;1.10;;;;;;;17.71;74.05;101264.84;5018339;28;20046;-71
2023/01/04 10:34:37;;;;;;;4.43;1.30;;;;;;;17.66;74.22;101267.50;5013206;28;20033;-70
2023/01/04 10:37:12;;;;;;;2.65;0.68;;;;;;;17.20;77.05;101264.41;5019054;28;20514;-74
2023/01/04 10:39:39;;;;;;;3.38;0.95;;;;;;;17.48;76.16;101263.28;5010784;28;20092;-71
2023/01/04 10:42:25;;;;;;;1.95;0.70;;;;;;;17.09;76.27;101273.53;5004037;28;20041;-71
2023/01/04 10:45:14;;;;;;;1.27;1.00;;;;;;;17.44;75.65;101243.13;5020165;28;20034;-71
2023/01/04 10:48:04;;;;;;;2.90;1.08;;;;;;;17.26;75.74;101243.53;5009251;28;20038;-72
2023/01/04 10:50:35;;;;;;;2.13;1.17;;;;;;;17.25;75.83;101242.72;5008428;28;20113;-70
2023/01/04 10:53:18;;;;;;;4.97;1.20;;;;;;;17.15;76.26;101220.09;5010404;28;20026;-72
2023/01/04 10:56:28;;;;;;;2.55;1.13;;;;;;;16.86;76.64;101233.16;5009097;28;20383;-72
2023/01/04 10:59:22;;;;;;;4.20;1.40;;;;;;;17.11;77.12;101227.13;5002648;28;20038;-73
2023/01/04 11:02:25;;;;;;;7.93;1.58;;;;;;;17.03;76.31;101230.31;5006216;28;20044;-72
2023/01/04 11:05:12;;;;;;;4.50;1.70;;;;;;;18.08;72.61;101230.25;4931117;28;20101;-71
2023/01/04 11:07:43;;;;;;;7.75;1.85;;;;;;;17.48;73.84;101208.94;4965154;28;20416;-73
2023/01/04 11:10:24;;;;;;;2.92;1.45;;;;;;;17.24;75.90;101216.63;4948734;28;20058;-72
2023/01/04 11:12:49;;;;;;;;;;;;;;;17.43;74.89;101206.19;4928937;29;20728;-72
2023/01/04 11:15:14;;;;;;;6.25;1.50;;;;;;;17.50;74.27;101196.75;4951669;28;20457;-70
2023/01/04 11:17:42;;;;;;;3.50;1.63;;;;;;;17.99;73.46;101197.28;4944475;28;20043;-72
2023/01/04 11:20:08;;;;;;;9.95;1.63;;;;;;;17.33;76.58;101197.97;4944243;28;20043;-73
2023/01/04 11:22:39;;;;;;;4.93;1.80;;;;;;;18.13;73.26;101198.44;4946058;28;20042;-71
2023/01/04 11:25:11;;;;;;;6.63;1.83;;;;;;;17.47;74.80;101193.72;4944060;28;20031;-71
2023/01/04 11:27:45;;;;;;;7.97;2.03;;;;;;;17.48;73.99;101200.78;4940348;28;20043;-73
2023/01/04 11:30:21;;;;;;;5.68;2.97;;;;;;;17.31;75.31;101203.66;4941002;28;20105;-72
2023/01/04 11:32:46;;;;;;;9.90;1.77;;;;;;;17.86;73.28;101188.81;4939763;28;20502;-71
2023/01/04 11:35:12;;;;;;;3.38;1.60;;;;;;;17.79;73.75;101188.25;4942899;28;20146;-71
2023/01/04 11:37:40;;;;;;;2.53;1.30;;;;;;;17.79;73.98;101188.25;4954770;28;20475;-72
2023/01/04 11:40:17;;;;;;;5.30;1.30;;;;;;;17.79;73.40;101172.72;4945937;28;20110;-73
2023/01/04 11:42:44;;;;;;;3.90;1.15;;;;;;;17.25;75.60;101168.56;5009830;28;20386;-71
2023/01/04 11:45:27;;;;;;;3.92;1.70;;;;;;;18.14;72.55;101181.03;5018269;28;20050;-72
2023/01/04 11:47:56;;;;;;;5.28;1.33;;;;;;;17.30;75.86;101191.16;5013184;28;20042;-71
2023/01/04 11:50:37;;;;;;;6.90;1.70;;;;;;;17.55;74.81;101168.81;5005453;28;20041;-71
2023/01/04 11:53:38;;;;;;;0.85;0.80;;;;;;;17.50;75.14;101171.47;5011346;28;20018;-73
2023/01/04 11:56:08;;;;;;;;;;;;;;;17.48;74.63;101187.19;5001873;28;20049;-72
2023/01/04 11:58:33;;;;;;;2.53;1.25;;;;;;;17.57;75.16;101174.78;5009096;28;20408;-74
2023/01/04 12:00:59;;;;;;;4.57;1.27;;;;;;;17.64;74.49;101171.81;5003979;28;20042;-72
2023/01/04 12:03:28;;;;;;;5.05;1.38;;;;;;;17.38;76.12;101170.81;5000348;28;20034;-73
2023/01/04 12:05:54;;;;;;;2.88;1.92;;;;;;;17.80;74.89;101171.66;5002347;28;20133;-71
2023/01/04 12:08:34;;;;;;;3.28;1.75;;;;;;;17.40;75.71;101157.78;4999497;28;20023;-71
2023/01/04 12:11:04;;;;;;;2.13;1.48;;;;;;;17.09;76.13;101181.22;5005036;28;20516;-71
2023/01/04 12:13:32;;;;;;;4.10;1.47;;;;;;;17.44;75.14;101172.50;4999674;28;20496;-73
2023/01/04 12:16:11;;;;;;;7.45;2.00;;;;;;;17.73;72.95;101186.56;4994359;28;20571;-72